Orbital elements of FENGYUN 1C DEB
| Launched | 9 May 1999 |
| Flight ended | – |
| Launch site | Taiyuan Space Center, PRC |
| Owner | People's Republic of China |
| NORAD ID | 31820 |
| Date fetched |
Epoch osculation |
Inc. [°] |
Ecc. | RA asc node [hr] |
Arg Peri. [°] |
Mean anom [°] |
Mean motion [rev/day] |
Abs. mag |
| Date fetched |
Epoch osculation |
Inc. [°] |
Ecc. | RA asc node [hr] |
Arg Peri. [°] |
Mean anom [°] |
Mean motion [rev/day] |
Abs. mag |
| 2026 May 03 17:57 | 2026 Apr 25 06:59:19 | 98.9653 | 0.01369 | 20.6778 | 301.3898 | 57.3989 | 14.96837 | – |
| 2026 May 02 17:57 | 2026 Apr 25 06:59:19 | 98.9653 | 0.01369 | 20.6778 | 301.3898 | 57.3989 | 14.96837 | – |
| 2026 May 01 17:56 | 2026 Apr 25 06:59:19 | 98.9653 | 0.01369 | 20.6778 | 301.3898 | 57.3989 | 14.96837 | – |
| 2026 Apr 30 17:56 | 2026 Apr 25 06:59:19 | 98.9653 | 0.01369 | 20.6778 | 301.3898 | 57.3989 | 14.96837 | – |
| 2026 Apr 29 17:57 | 2026 Apr 24 11:44:11 | 98.9651 | 0.01370 | 20.6165 | 303.9886 | 57.3989 | 14.96837 | – |
| 2026 Apr 28 17:56 | 2026 Apr 24 11:44:11 | 98.9651 | 0.01370 | 20.6165 | 303.9886 | 57.3989 | 14.96837 | – |
| 2026 Apr 27 17:58 | 2026 Apr 24 11:44:11 | 98.9651 | 0.01370 | 20.6165 | 303.9886 | 57.3989 | 14.96837 | – |
| 2026 Apr 26 17:58 | 2026 Apr 24 11:44:11 | 98.9651 | 0.01370 | 20.6165 | 303.9886 | 57.3989 | 14.96837 | – |
| 2026 Apr 25 17:58 | 2026 Apr 24 11:44:11 | 98.9651 | 0.01370 | 20.6165 | 303.9886 | 57.3989 | 14.96837 | – |
| 2026 Apr 24 17:59 | 2026 Apr 24 11:44:11 | 98.9651 | 0.01370 | 20.6165 | 303.9886 | 57.3989 | 14.96837 | – |
| 2026 Apr 23 17:57 | 2026 Apr 17 00:02:34 | 98.9635 | 0.01379 | 20.0447 | 328.2101 | 57.3989 | 14.96837 | – |
| 2026 Apr 22 17:57 | 2026 Apr 17 00:02:34 | 98.9635 | 0.01379 | 20.0447 | 328.2101 | 57.3989 | 14.96837 | – |
| 2026 Apr 21 17:57 | 2026 Apr 17 00:02:34 | 98.9635 | 0.01379 | 20.0447 | 328.2101 | 57.3989 | 14.96837 | – |
| 2026 Apr 20 17:57 | 2026 Apr 17 00:02:34 | 98.9635 | 0.01379 | 20.0447 | 328.2101 | 57.3989 | 14.96837 | – |
| 2026 Apr 19 17:58 | 2026 Apr 17 00:02:34 | 98.9635 | 0.01379 | 20.0447 | 328.2101 | 57.3989 | 14.96837 | – |
| 2026 Apr 18 17:56 | 2026 Apr 12 23:46:25 | 98.9625 | 0.01385 | 19.7384 | 341.1982 | 57.3989 | 14.96837 | – |
| 2026 Apr 16 17:57 | 2026 Apr 12 23:46:25 | 98.9625 | 0.01385 | 19.7384 | 341.1982 | 57.3989 | 14.96837 | – |
| 2026 Apr 14 17:57 | 2026 Apr 12 23:46:25 | 98.9625 | 0.01385 | 19.7384 | 341.1982 | 57.3989 | 14.96837 | – |
| 2026 Apr 13 17:57 | 2026 Apr 12 23:46:25 | 98.9625 | 0.01385 | 19.7384 | 341.1982 | 57.3989 | 14.96837 | – |
| 2026 Apr 12 17:57 | 2026 Apr 06 23:21:49 | 98.9640 | 0.01390 | 19.2790 | 0.7634 | 57.3989 | 14.96837 | – |
| 2026 Apr 11 17:57 | 2026 Apr 06 23:21:49 | 98.9640 | 0.01390 | 19.2790 | 0.7634 | 57.3989 | 14.96837 | – |
| 2026 Apr 10 17:58 | 2026 Apr 06 23:21:49 | 98.9640 | 0.01390 | 19.2790 | 0.7634 | 57.3989 | 14.96837 | – |
| 2026 Apr 09 18:01 | 2026 Apr 06 23:21:49 | 98.9640 | 0.01390 | 19.2790 | 0.7634 | 57.3989 | 14.96837 | – |
| 2026 Apr 08 17:57 | 2026 Apr 06 23:21:49 | 98.9640 | 0.01390 | 19.2790 | 0.7634 | 57.3989 | 14.96837 | – |
| 2026 Apr 07 17:57 | 2026 Apr 02 07:02:09 | 98.9649 | 0.01395 | 18.9218 | 16.0305 | 57.3989 | 14.96837 | – |
| 2026 Apr 06 17:57 | 2026 Apr 02 07:02:09 | 98.9649 | 0.01395 | 18.9218 | 16.0305 | 57.3989 | 14.96837 | – |